Time;durP1;ratioP1;P1;durP2;ratioP2;P2;SDS_P1;SDS_P2;PMS_P1;PMS_P2;Temp;Humidity;BMP_temperature;BMP_pressure;BME280_temperature;BME280_humidity;BME280_pressure;Samples;Min_cycle;Max_cycle;Signal;HPM_P1;HPM_P2
2022/11/02 00:00:55;;;;;;;13.00;3.10;;;;;;;12.37;79.86;101114.22;5054884;28;20261;-64
2022/11/02 00:03:23;;;;;;;9.37;3.40;;;;;;;12.35;79.83;101116.16;5056631;28;20206;-64
2022/11/02 00:05:51;;;;;;;12.37;3.30;;;;;;;12.39;79.55;101114.06;5059439;28;20641;-64
2022/11/02 00:08:18;;;;;;;13.90;3.10;;;;;;;12.36;79.48;101112.53;5056376;28;20299;-62
2022/11/02 00:10:46;;;;;;;10.00;2.67;;;;;;;12.43;79.10;101104.81;5052419;28;21237;-63
2022/11/02 00:13:13;;;;;;;17.17;2.40;;;;;;;12.42;79.20;101103.97;5055700;28;20581;-64
2022/11/02 00:15:41;;;;;;;7.43;2.43;;;;;;;12.35;79.36;101113.50;5070183;28;20234;-65
2022/11/02 00:18:12;;;;;;;7.80;2.63;;;;;;;12.32;79.40;101108.47;5062609;28;20261;-63
2022/11/02 00:20:41;;;;;;;13.57;2.67;;;;;;;12.32;79.50;101105.81;5059867;28;20205;-64
2022/11/02 00:23:11;;;;;;;10.70;2.40;;;;;;;12.33;79.22;101115.47;5065263;28;20218;-64
2022/11/02 00:25:40;;;;;;;8.53;2.30;;;;;;;12.30;79.26;101113.13;5059379;28;20243;-63
2022/11/02 00:28:08;;;;;;;9.60;2.90;;;;;;;12.29;79.49;101110.59;5058186;28;20210;-62
2022/11/02 00:30:37;;;;;;;11.30;2.80;;;;;;;12.26;79.21;101103.72;5056543;28;20284;-63
2022/11/02 00:33:05;;;;;;;8.77;2.87;;;;;;;12.27;79.24;101099.25;5052926;28;20220;-63
2022/11/02 00:35:36;;;;;;;9.13;2.57;;;;;;;12.34;78.89;101095.03;5049996;28;20231;-62
2022/11/02 00:38:04;;;;;;;8.60;2.60;;;;;;;12.27;79.09;101105.41;5062991;28;20253;-62
2022/11/02 00:40:32;;;;;;;8.60;2.53;;;;;;;12.28;79.17;101106.25;5061167;28;20218;-63
2022/11/02 00:43:00;;;;;;;9.60;2.10;;;;;;;12.27;78.98;101105.41;5056105;28;20925;-62
2022/11/02 00:45:28;;;;;;;9.80;2.40;;;;;;;12.26;79.03;101103.72;5051150;28;20254;-63
2022/11/02 00:47:55;;;;;;;9.07;2.07;;;;;;;12.24;79.07;101104.84;5062764;28;20269;-64
2022/11/02 00:50:23;;;;;;;8.93;2.37;;;;;;;12.25;79.40;101112.69;5052416;28;21495;-63
2022/11/02 00:52:52;;;;;;;13.07;3.80;;;;;;;12.26;78.92;101117.03;5056680;28;20274;-63
2022/11/02 00:55:20;;;;;;;12.77;2.90;;;;;;;12.16;79.22;101102.91;5059708;28;20282;-64
2022/11/02 00:57:48;;;;;;;8.73;2.90;;;;;;;12.16;79.62;101107.38;5062361;28;20583;-63
2022/11/02 01:00:16;;;;;;;11.40;2.60;;;;;;;12.12;79.75;101104.19;5063725;28;20773;-63
2022/11/02 01:02:44;;;;;;;14.17;2.87;;;;;;;12.14;79.63;101099.56;5052334;28;20212;-63
2022/11/02 01:05:12;;;;;;;10.47;2.77;;;;;;;12.19;79.02;101099.97;5055553;28;20202;-65
2022/11/02 01:07:40;;;;;;;6.40;2.00;;;;;;;12.25;78.74;101102.06;5053198;28;20702;-63
2022/11/02 01:10:10;;;;;;;9.13;2.33;;;;;;;12.18;79.14;101095.63;5052939;28;20204;-63
2022/11/02 01:12:39;;;;;;;9.90;1.97;;;;;;;12.20;79.07;101101.66;5059115;28;20604;-64
2022/11/02 01:15:09;;;;;;;8.93;2.10;;;;;;;12.20;78.67;101093.69;5059142;28;20243;-64
2022/11/02 01:17:36;;;;;;;10.53;2.50;;;;;;;12.21;78.71;101100.69;5056546;28;20200;-64
2022/11/02 01:20:05;;;;;;;8.20;2.30;;;;;;;12.16;78.70;101097.59;5055470;28;20216;-63
2022/11/02 01:22:33;;;;;;;8.87;2.00;;;;;;;12.18;78.55;101092.13;5062096;28;20230;-63
2022/11/02 01:25:01;;;;;;;6.50;2.27;;;;;;;12.11;78.68;101094.53;5067392;28;20317;-63
2022/11/02 01:27:30;;;;;;;9.13;2.20;;;;;;;12.01;79.05;101093.72;5059397;28;20746;-64
2022/11/02 01:29:57;;;;;;;9.27;2.20;;;;;;;12.00;79.45;101092.03;5056038;28;20320;-63
2022/11/02 01:32:25;;;;;;;5.47;2.13;;;;;;;11.96;79.61;101088.81;5057842;28;20282;-65
2022/11/02 01:34:53;;;;;;;11.17;2.30;;;;;;;11.91;79.69;101092.88;5064418;28;20660;-64
2022/11/02 01:37:20;;;;;;;6.27;2.00;;;;;;;11.88;80.07;101095.81;5056665;28;20612;-64
2022/11/02 01:39:48;;;;;;;8.23;2.10;;;;;;;11.78;80.29;101093.19;5058989;28;20221;-64
2022/11/02 01:42:18;;;;;;;6.50;1.80;;;;;;;11.76;80.76;101096.94;5059212;28;20208;-65
2022/11/02 01:44:47;;;;;;;9.30;2.03;;;;;;;11.69;81.21;101096.66;5053893;28;20251;-63
2022/11/02 01:47:21;;;;;;;8.07;2.17;;;;;;;11.67;81.46;101094.13;5046024;28;20227;-63
2022/11/02 01:49:51;;;;;;;10.37;2.40;;;;;;;11.70;81.53;101091.16;5052777;28;20207;-62
2022/11/02 01:52:23;;;;;;;8.77;2.53;;;;;;;11.68;81.83;101087.84;5060178;28;20207;-64
2022/11/02 01:54:55;;;;;;;7.97;1.93;;;;;;;11.77;81.93;101085.34;5053251;28;20959;-64
2022/11/02 01:57:25;;;;;;;10.50;2.10;;;;;;;11.77;81.46;101086.19;5046653;28;20226;-64
2022/11/02 01:59:59;;;;;;;9.40;1.83;;;;;;;11.75;81.65;101084.66;5058816;28;20785;-63
2022/11/02 02:02:28;;;;;;;8.60;1.97;;;;;;;11.76;81.87;101083.66;5057534;28;20255;-66
2022/11/02 02:05:01;;;;;;;8.17;1.90;;;;;;;11.81;81.57;101086.72;5049967;28;20199;-64
2022/11/02 02:07:31;;;;;;;9.67;2.50;;;;;;;11.83;81.26;101079.47;5057551;28;20284;-64
2022/11/02 02:10:00;;;;;;;7.83;2.13;;;;;;;11.82;81.37;101077.78;5055807;28;20216;-62
2022/11/02 02:12:29;;;;;;;9.67;2.60;;;;;;;11.80;81.85;101077.06;5054492;28;20650;-63
2022/11/02 02:14:59;;;;;;;11.43;2.43;;;;;;;11.85;81.44;101072.19;5053350;28;20281;-64
2022/11/02 02:17:38;;;;;;;9.60;1.57;;;;;;;11.88;81.25;101072.72;5056175;28;20227;-64
2022/11/02 02:20:11;;;;;;;6.37;1.90;;;;;;;11.93;80.70;101069.66;5049720;28;20730;-63
2022/11/02 02:23:01;;;;;;;6.47;1.80;;;;;;;11.92;80.67;101068.81;5047636;28;20595;-63
2022/11/02 02:26:00;;;;;;;5.87;1.53;;;;;;;11.93;80.56;101075.81;5048333;28;20234;-63
2022/11/02 02:28:40;;;;;;;6.60;1.77;;;;;;;11.87;80.75;101070.25;5048240;28;20200;-64
2022/11/02 02:31:14;;;;;;;10.63;2.00;;;;;;;11.81;81.31;101074.28;5052135;28;20843;-64
2022/11/02 02:33:46;;;;;;;5.60;2.03;;;;;;;11.85;81.41;101077.50;5048550;28;20215;-64
2022/11/02 02:36:20;;;;;;;7.97;1.63;;;;;;;11.82;81.31;101073.31;5048463;28;20229;-64
2022/11/02 02:38:54;;;;;;;5.60;1.77;;;;;;;11.79;82.09;101078.06;5050106;28;20225;-63
2022/11/02 02:41:29;;;;;;;7.17;2.17;;;;;;;11.79;82.08;101070.09;5045648;28;23086;-62
2022/11/02 02:44:02;;;;;;;10.60;2.80;;;;;;;11.79;81.97;101075.41;5047038;28;20224;-63
2022/11/02 02:46:36;;;;;;;9.50;2.37;;;;;;;11.82;81.98;101064.50;5050675;28;20196;-63
2022/11/02 02:49:13;;;;;;;12.83;3.10;;;;;;;11.82;81.94;101062.69;5049800;28;20554;-63
2022/11/02 02:51:44;;;;;;;15.43;2.40;;;;;;;11.82;81.74;101057.38;5043027;28;20673;-62
2022/11/02 02:54:16;;;;;;;7.27;2.30;;;;;;;11.83;82.03;101063.53;5051285;28;20209;-63
2022/11/02 02:56:50;;;;;;;8.60;2.07;;;;;;;11.80;82.41;101063.78;5049992;28;20220;-63
2022/11/02 02:59:23;;;;;;;10.70;2.23;;;;;;;11.86;81.78;101069.41;5047132;28;20253;-65
2022/11/02 03:01:50;;;;;;;5.70;1.60;;;;;;;11.82;82.24;101060.03;5047807;28;20661;-65
2022/11/02 03:04:18;;;;;;;5.90;2.13;;;;;;;11.78;82.18;101052.50;5048554;28;20224;-63
2022/11/02 03:06:50;;;;;;;9.00;2.50;;;;;;;11.77;82.46;101050.81;5047722;28;20208;-63
2022/11/02 03:09:24;;;;;;;6.90;1.90;;;;;;;11.70;83.14;101051.31;5051087;28;20204;-63
2022/11/02 03:12:03;;;;;;;10.07;2.30;;;;;;;11.79;82.16;101054.13;5051757;28;20211;-64
2022/11/02 03:14:43;;;;;;;7.90;3.13;;;;;;;11.74;82.98;101059.03;5050540;28;20231;-64
2022/11/02 03:17:16;;;;;;;9.13;2.03;;;;;;;11.72;83.20;101061.81;5049358;28;20258;-63
2022/11/02 03:19:51;;;;;;;10.23;2.53;;;;;;;11.74;83.21;101054.53;5056339;28;20203;-63
2022/11/02 03:22:26;;;;;;;8.00;2.27;;;;;;;11.74;83.27;101051.03;5054629;28;20222;-64
2022/11/02 03:25:00;;;;;;;9.80;2.40;;;;;;;11.75;82.96;101058.06;5055368;28;20210;-64
2022/11/02 03:27:37;;;;;;;10.30;2.50;;;;;;;11.71;83.61;101060.13;5054970;28;20259;-65
2022/11/02 03:30:10;;;;;;;8.20;2.23;;;;;;;11.71;83.54;101054.81;5057345;28;20544;-65
2022/11/02 03:32:45;;;;;;;9.30;2.87;;;;;;;11.66;83.75;101055.25;5049891;28;20216;-64
2022/11/02 03:35:17;;;;;;;8.83;2.30;;;;;;;11.73;83.67;101062.66;5050971;28;20195;-63
2022/11/02 03:37:47;;;;;;;12.00;3.07;;;;;;;11.82;83.32;101067.16;5057035;28;20223;-63
2022/11/02 03:40:19;;;;;;;8.87;2.17;;;;;;;11.87;82.91;101078.22;5054313;28;20579;-64
2022/11/02 03:42:51;;;;;;;13.40;3.00;;;;;;;11.90;82.37;101075.25;5060208;28;20318;-62
2022/11/02 03:45:23;;;;;;;10.40;2.40;;;;;;;11.85;82.40;101072.19;5055231;28;20225;-63
2022/11/02 03:47:54;;;;;;;11.20;2.10;;;;;;;11.83;82.85;101077.66;5056994;28;20198;-62
2022/11/02 03:50:23;;;;;;;9.67;2.53;;;;;;;11.84;82.54;101091.78;5058071;28;20275;-63
2022/11/02 03:52:56;;;;;;;14.00;2.30;;;;;;;11.79;83.04;101094.84;5048756;28;20222;-64
2022/11/02 03:55:29;;;;;;;11.97;2.90;;;;;;;11.90;83.02;101096.50;5052494;28;20747;-63
2022/11/02 03:57:57;;;;;;;9.77;2.37;;;;;;;12.06;81.88;101096.78;5057569;28;20270;-64
2022/11/02 04:00:31;;;;;;;7.63;2.13;;;;;;;12.15;81.13;101111.88;5049603;28;20222;-63
2022/11/02 04:03:02;;;;;;;10.77;2.77;;;;;;;12.17;80.94;101103.75;5053582;28;20641;-62
2022/11/02 04:05:32;;;;;;;11.23;2.27;;;;;;;12.23;80.39;101114.66;5058459;28;20215;-63
2022/11/02 04:16:19;;;;;;;13.23;2.43;;;;;;;12.46;79.33;101130.28;5050013;28;20250;-63
2022/11/02 04:21:40;;;;;;;7.03;2.27;;;;;;;12.55;78.17;101132.09;5051336;28;20273;-64
2022/11/02 04:26:53;;;;;;;5.23;2.20;;;;;;;12.34;78.58;101132.25;5048762;28;20231;-65
2022/11/02 04:29:21;;;;;;;12.07;2.53;;;;;;;12.26;79.10;101130.31;5049700;28;20214;-63
2022/11/02 04:31:50;;;;;;;10.37;2.33;;;;;;;12.14;79.91;101131.44;5049120;28;20265;-64
2022/11/02 04:34:16;;;;;;;10.97;2.43;;;;;;;12.07;80.40;101135.66;5051023;28;20560;-63
2022/11/02 04:36:44;;;;;;;14.00;2.60;;;;;;;12.04;81.05;101138.63;5051597;28;20624;-63
2022/11/02 04:39:11;;;;;;;13.67;3.20;;;;;;;12.01;81.64;101141.56;5052908;28;20218;-64
2022/11/02 04:41:41;;;;;;;9.60;2.43;;;;;;;12.06;81.50;101139.31;5053677;28;20644;-63
2022/11/02 04:44:10;;;;;;;9.13;2.37;;;;;;;12.02;81.49;101151.22;5049191;28;20614;-64
2022/11/02 04:46:38;;;;;;;12.27;2.37;;;;;;;11.96;81.90;101149.13;5045873;28;20212;-64
2022/11/02 04:49:08;;;;;;;11.43;2.13;;;;;;;11.91;82.38;101152.19;5052221;28;20229;-62
2022/11/02 04:51:38;;;;;;;13.87;2.50;;;;;;;11.81;82.73;101145.19;5055649;28;20287;-62
2022/11/02 04:54:06;;;;;;;9.33;2.20;;;;;;;11.89;83.01;101138.19;5053453;28;20203;-66
2022/11/02 04:56:34;;;;;;;9.43;2.17;;;;;;;11.99;82.08;101141.69;5049747;28;20689;-63
2022/11/02 04:59:02;;;;;;;10.43;2.50;;;;;;;11.98;82.25;101141.81;5049968;28;20199;-63
2022/11/02 05:01:30;;;;;;;11.20;2.20;;;;;;;11.94;82.03;101143.09;5047663;28;20296;-63
2022/11/02 05:03:58;;;;;;;5.30;2.13;;;;;;;11.98;81.69;101147.16;5051253;28;20565;-63
2022/11/02 05:06:27;;;;;;;11.57;2.67;;;;;;;12.06;81.82;101147.28;5052645;28;20201;-64
2022/11/02 05:08:55;;;;;;;7.67;2.10;;;;;;;12.06;81.37;101155.25;5054108;28;20225;-65
2022/11/02 05:11:23;;;;;;;8.07;2.40;;;;;;;12.04;81.67;101157.22;5053655;28;20302;-63
2022/11/02 05:13:51;;;;;;;8.07;1.90;;;;;;;12.15;81.45;101149.09;5052000;28;20362;-62
2022/11/02 05:16:18;;;;;;;14.60;2.50;;;;;;;12.28;80.62;101152.31;5054972;28;20957;-63
2022/11/02 05:18:46;;;;;;;10.33;2.23;;;;;;;12.31;80.14;101149.34;5054062;28;20628;-64
2022/11/02 05:21:14;;;;;;;5.80;2.60;;;;;;;12.19;80.60;101158.47;5049283;28;20687;-63
2022/11/02 05:23:43;;;;;;;7.90;2.97;;;;;;;12.17;80.63;101152.44;5057659;28;21196;-64
2022/11/02 05:26:12;;;;;;;10.10;2.33;;;;;;;12.17;80.79;101147.13;5059221;28;20604;-62
2022/11/02 05:28:39;;;;;;;10.87;2.87;;;;;;;12.15;80.85;101149.09;5055636;28;20225;-63
2022/11/02 05:31:07;;;;;;;12.17;2.80;;;;;;;12.17;81.16;101151.59;5055272;28;20212;-64
2022/11/02 05:33:35;;;;;;;12.23;2.50;;;;;;;12.23;80.81;101157.19;5053165;28;20254;-63
2022/11/02 05:36:03;;;;;;;9.23;2.70;;;;;;;12.27;80.61;101161.25;5056219;28;20212;-63
2022/11/02 05:38:31;;;;;;;13.13;2.57;;;;;;;12.19;80.64;101160.28;5050349;28;20640;-63
2022/11/02 05:41:00;;;;;;;7.40;2.40;;;;;;;12.10;81.47;101161.97;5057666;28;20208;-63
2022/11/02 05:43:28;;;;;;;8.93;2.57;;;;;;;12.19;81.32;101177.09;5052141;28;20208;-63
2022/11/02 05:45:57;;;;;;;9.63;2.00;;;;;;;12.20;81.32;101175.28;5052187;28;20261;-63
2022/11/02 05:48:26;;;;;;;15.47;3.20;;;;;;;12.23;81.34;101185.59;5051636;28;20216;-62
2022/11/02 05:50:56;;;;;;;11.37;3.60;;;;;;;12.34;80.59;101186.28;5047835;28;20316;-63
2022/11/02 05:53:24;;;;;;;9.83;2.57;;;;;;;12.28;80.43;101200.16;5045980;28;20665;-63
2022/11/02 05:55:52;;;;;;;8.90;2.90;;;;;;;12.22;80.69;101198.09;5047674;28;20634;-64
2022/11/02 05:58:21;;;;;;;11.33;3.33;;;;;;;12.24;80.82;101198.75;5045823;28;20243;-62
2022/11/02 06:00:48;;;;;;;9.77;3.10;;;;;;;12.32;80.68;101206.88;5048322;28;20254;-63
2022/11/02 06:03:16;;;;;;;9.63;2.90;;;;;;;12.35;80.40;101203.09;5045115;28;20281;-63
2022/11/02 06:05:44;;;;;;;11.10;3.63;;;;;;;12.39;80.27;101209.81;5049131;28;20215;-63
2022/11/02 06:08:12;;;;;;;7.40;2.67;;;;;;;12.31;80.20;101207.84;5050453;28;20280;-63
2022/11/02 06:10:42;;;;;;;9.50;2.83;;;;;;;12.18;81.41;101209.13;5051255;28;20293;-63
2022/11/02 06:13:09;;;;;;;11.40;2.57;;;;;;;12.09;82.54;101210.81;5046155;28;20286;-64
2022/11/02 06:15:38;;;;;;;14.07;2.93;;;;;;;12.11;82.53;101208.84;5053031;28;20203;-64
2022/11/02 06:18:06;;;;;;;10.70;2.20;;;;;;;12.14;82.65;101216.53;5046301;28;20281;-64
2022/11/02 06:20:34;;;;;;;9.40;2.50;;;;;;;12.20;82.50;101218.66;5046476;28;20211;-63
2022/11/02 06:23:02;;;;;;;12.33;3.03;;;;;;;12.26;82.10;101212.75;5044903;28;20667;-63
2022/11/02 06:25:30;;;;;;;14.50;3.03;;;;;;;12.24;82.34;101213.88;5046698;28;20238;-63
2022/11/02 06:27:58;;;;;;;9.40;2.67;;;;;;;12.33;82.18;101226.31;5045925;28;20256;-63
2022/11/02 06:30:26;;;;;;;7.53;2.20;;;;;;;12.46;81.67;101224.22;5047423;28;20732;-64
2022/11/02 06:32:55;;;;;;;10.10;2.30;;;;;;;12.62;81.57;101227.13;5050171;28;20346;-65
2022/11/02 06:35:23;;;;;;;11.57;2.57;;;;;;;12.64;81.57;101232.31;5047135;28;20776;-64
2022/11/02 06:37:50;;;;;;;11.83;3.17;;;;;;;12.71;80.99;101236.94;5049833;28;20246;-63
2022/11/02 06:40:18;;;;;;;13.77;3.03;;;;;;;12.80;80.71;101243.22;5048909;28;20204;-64
2022/11/02 06:42:56;;;;;;;13.40;2.40;;;;;;;12.85;80.38;101259.56;5052234;28;20203;-64
2022/11/02 06:45:42;;;;;;;9.80;2.53;;;;;;;12.94;80.03;101261.38;5056916;28;20206;-63
2022/11/02 06:48:11;;;;;;;10.57;2.57;;;;;;;13.03;79.79;101270.31;5054418;28;20215;-64
2022/11/02 06:50:39;;;;;;;11.53;2.13;;;;;;;13.06;79.98;101272.69;5052890;28;20260;-64
2022/11/02 06:53:07;;;;;;;12.97;2.60;;;;;;;13.03;79.51;101278.31;5058593;28;20271;-65
2022/11/02 06:55:35;;;;;;;9.07;1.80;;;;;;;13.02;79.65;101287.28;5058081;28;20218;-63
2022/11/02 06:58:02;;;;;;;13.63;2.50;;;;;;;13.04;79.46;101282.66;5055369;28;20231;-65
2022/11/02 07:00:30;;;;;;;11.07;2.07;;;;;;;13.02;79.54;101290.78;5054406;28;20828;-64
2022/11/02 07:03:02;;;;;;;10.47;2.33;;;;;;;13.07;79.51;101291.19;5054541;28;20240;-64
2022/11/02 07:05:32;;;;;;;15.07;2.50;;;;;;;13.12;79.11;101293.41;5051774;28;20216;-64
2022/11/02 07:08:00;;;;;;;5.63;1.60;;;;;;;13.16;78.73;101298.34;5053174;28;20216;-63
2022/11/02 07:10:28;;;;;;;8.67;2.20;;;;;;;13.19;78.65;101300.72;5053889;28;20250;-65
2022/11/02 07:12:57;;;;;;;8.90;1.80;;;;;;;13.22;78.58;101296.09;5049228;28;20237;-65
2022/11/02 07:15:26;;;;;;;11.10;2.13;;;;;;;13.28;78.10;101300.84;5058293;28;20216;-63
2022/11/02 07:17:54;;;;;;;9.77;1.73;;;;;;;13.32;78.06;101299.56;5056426;28;20251;-61
2022/11/02 07:20:21;;;;;;;10.27;1.67;;;;;;;13.39;77.82;101298.00;5058078;28;20214;-61
2022/11/02 07:22:55;;;;;;;9.47;1.73;;;;;;;13.46;77.50;101296.41;5057799;28;20215;-61
2022/11/02 07:25:23;;;;;;;6.97;1.47;;;;;;;13.51;76.96;101300.34;5055467;28;20235;-61
2022/11/02 07:27:51;;;;;;;11.20;1.83;;;;;;;13.58;76.94;101311.22;5056830;28;20211;-62
2022/11/02 07:30:19;;;;;;;11.40;2.03;;;;;;;13.59;77.64;101312.06;5065192;28;20212;-63
2022/11/02 07:32:47;;;;;;;11.87;1.70;;;;;;;13.60;77.84;101311.09;5071913;28;20264;-62
2022/11/02 07:35:16;;;;;;;7.60;1.53;;;;;;;13.65;77.34;101322.13;5064522;28;20214;-62
2022/11/02 07:37:44;;;;;;;11.73;2.00;;;;;;;13.69;77.06;101328.88;5060017;28;20656;-60
2022/11/02 07:40:14;;;;;;;8.43;2.43;;;;;;;13.79;76.26;101327.84;5056757;28;20231;-59
2022/11/02 07:42:45;;;;;;;13.43;1.53;;;;;;;13.89;75.73;101331.31;5066724;28;20214;-63
2022/11/02 07:45:14;;;;;;;13.77;1.73;;;;;;;13.96;75.63;101341.34;5067928;28;20209;-61
2022/11/02 07:47:43;;;;;;;12.97;2.10;;;;;;;13.97;75.26;101343.03;5061162;28;20206;-61
2022/11/02 07:50:11;;;;;;;9.43;1.97;;;;;;;14.03;75.07;101342.44;5067217;28;20206;-61
2022/11/02 07:52:46;;;;;;;8.90;2.00;;;;;;;14.07;75.08;101341.97;5052652;28;20210;-62
2022/11/02 07:55:17;;;;;;;10.13;1.73;;;;;;;14.12;74.65;101344.22;5056102;28;20206;-61
2022/11/02 07:57:53;;;;;;;13.97;2.20;;;;;;;14.21;74.02;101348.66;5065716;28;20225;-61
2022/11/02 08:00:21;;;;;;;10.13;1.70;;;;;;;14.23;74.16;101360.00;5058891;28;20369;-62
2022/11/02 08:02:49;;;;;;;7.80;2.40;;;;;;;14.29;73.64;101357.56;5052028;28;20682;-62
2022/11/02 08:05:16;;;;;;;11.07;2.40;;;;;;;14.37;73.05;101351.47;5051959;28;20258;-61
2022/11/02 08:07:44;;;;;;;11.73;1.90;;;;;;;14.44;72.56;101363.25;5057556;28;20261;-60
2022/11/02 08:10:12;;;;;;;14.40;2.53;;;;;;;14.51;72.25;101363.50;5059835;28;20271;-60
2022/11/02 08:12:41;;;;;;;11.70;1.60;;;;;;;14.56;71.12;101382.56;5052654;28;20817;-61
2022/11/02 08:15:09;;;;;;;11.20;2.33;;;;;;;14.63;70.34;101379.13;5051668;28;20227;-61
2022/11/02 08:17:37;;;;;;;12.20;1.80;;;;;;;14.63;70.51;101373.78;5051563;28;20210;-62
2022/11/02 08:20:06;;;;;;;12.33;2.50;;;;;;;14.71;70.18;101385.53;5053460;28;20680;-65
2022/11/02 08:22:37;;;;;;;8.83;2.40;;;;;;;14.74;69.83;101375.41;5057498;28;20208;-65
2022/11/02 08:25:06;;;;;;;11.17;1.87;;;;;;;14.78;69.83;101382.09;5059282;28;20234;-63
2022/11/02 08:27:34;;;;;;;21.07;2.73;;;;;;;14.90;69.33;101380.03;5046080;28;20203;-61
2022/11/02 08:30:03;;;;;;;9.67;1.50;;;;;;;14.97;68.63;101376.59;5057018;28;20204;-60
2022/11/02 08:32:31;;;;;;;9.80;1.87;;;;;;;15.05;68.33;101383.81;5057867;28;20213;-61
2022/11/02 08:34:58;;;;;;;11.20;2.47;;;;;;;15.20;67.92;101382.28;5053200;28;20212;-61
2022/11/02 08:37:26;;;;;;;10.23;1.63;;;;;;;15.27;67.36;101388.69;5052548;28;20212;-61
2022/11/02 08:39:53;;;;;;;10.43;1.37;;;;;;;15.36;66.71;101387.75;5050693;28;20235;-61
2022/11/02 08:42:21;;;;;;;10.53;1.93;;;;;;;15.50;66.56;101377.44;5055275;28;20211;-61
2022/11/02 08:44:49;;;;;;;7.50;1.87;;;;;;;15.68;65.94;101387.13;5056706;28;20211;-61
2022/11/02 08:47:18;;;;;;;12.47;1.97;;;;;;;16.03;64.48;101385.28;5048301;28;20262;-62
2022/11/02 08:49:46;;;;;;;16.43;2.70;;;;;;;16.19;63.37;101383.50;5056212;28;20234;-62
2022/11/02 08:52:13;;;;;;;9.23;2.23;;;;;;;16.56;62.65;101392.94;5058768;28;20215;-62
2022/11/02 08:54:41;;;;;;;12.07;2.70;;;;;;;17.13;60.40;101388.50;5054451;28;20265;-62
2022/11/02 08:57:08;;;;;;;13.87;2.10;;;;;;;18.08;57.98;101389.47;5051097;28;20212;-61
2022/11/02 08:59:36;;;;;;;9.63;2.00;;;;;;;19.44;53.04;101391.34;5057106;28;20611;-62
2022/11/02 09:02:04;;;;;;;11.10;1.93;;;;;;;21.45;47.97;101392.44;5057303;28;20204;-60
2022/11/02 09:04:33;;;;;;;8.83;1.80;;;;;;;23.36;42.62;101376.84;5052812;28;20216;-62
2022/11/02 09:07:01;;;;;;;9.00;2.20;;;;;;;23.55;41.76;101373.31;5055271;28;20554;-61
2022/11/02 09:09:28;;;;;;;10.97;1.80;;;;;;;23.49;41.77;101369.53;5053047;28;20243;-62
2022/11/02 09:11:56;;;;;;;9.63;2.20;;;;;;;24.21;40.07;101368.50;5053975;28;20653;-62
2022/11/02 09:14:24;;;;;;;9.20;2.13;;;;;;;23.64;40.52;101369.31;5049445;28;20230;-61
2022/11/02 09:16:51;;;;;;;9.20;1.90;;;;;;;23.17;41.19;101373.09;5060334;28;20212;-60
2022/11/02 09:19:19;;;;;;;8.93;2.15;;;;;;;22.72;42.68;101369.31;5061545;28;20305;-61
2022/11/02 09:21:49;;;;;;;11.70;2.30;;;;;;;22.87;42.32;101370.81;5053704;28;20250;-62
2022/11/02 09:24:17;;;;;;;10.20;2.13;;;;;;;23.85;40.77;101360.91;5064160;28;20280;-60
2022/11/02 09:26:47;;;;;;;6.63;2.10;;;;;;;24.58;38.52;101368.72;5056210;28;20306;-60
2022/11/02 09:29:15;;;;;;;11.43;2.00;;;;;;;25.04;38.05;101369.25;5058011;28;20554;-61
2022/11/02 09:31:42;;;;;;;9.30;2.03;;;;;;;25.56;36.78;101369.78;5056668;28;20356;-61
2022/11/02 09:34:10;;;;;;;8.30;2.08;;;;;;;25.96;35.86;101372.06;5051330;28;20653;-61
2022/11/02 09:36:38;;;;;;;9.73;2.05;;;;;;;25.19;36.81;101368.91;5055928;28;20207;-62
2022/11/02 09:39:08;;;;;;;7.78;2.03;;;;;;;24.11;38.14;101373.50;5051241;28;20204;-60
2022/11/02 09:41:43;;;;;;;7.03;1.73;;;;;;;22.91;40.12;101367.69;5056863;28;20229;-61
2022/11/02 09:44:16;;;;;;;9.85;2.05;;;;;;;22.01;41.68;101375.13;5058324;28;20208;-62
2022/11/02 09:46:46;;;;;;;8.70;2.38;;;;;;;21.49;43.19;101372.13;5053264;28;20431;-60
2022/11/02 09:49:28;;;;;;;7.53;1.88;;;;;;;20.99;44.05;101360.50;5062780;28;20563;-60
2022/11/02 09:51:58;;;;;;;10.77;2.90;;;;;;;20.64;44.43;101373.88;5052748;28;20207;-60
2022/11/02 09:54:32;;;;;;;6.15;2.20;;;;;;;20.44;44.72;101369.31;5052730;28;20218;-61
2022/11/02 09:57:05;;;;;;;9.32;2.38;;;;;;;20.06;45.27;101364.06;5056929;28;20222;-62
2022/11/02 09:59:33;;;;;;;7.60;1.60;;;;;;;19.83;45.52;101366.91;5056001;28;20236;-62
2022/11/02 10:02:10;;;;;;;7.35;1.80;;;;;;;19.96;45.59;101384.25;5056293;28;20215;-61
2022/11/02 10:04:54;;;;;;;12.15;2.30;;;;;;;20.96;43.53;101372.50;5057108;28;20211;-63
2022/11/02 10:07:35;;;;;;;10.68;1.80;;;;;;;21.76;41.80;101380.16;5055336;28;20215;-62
2022/11/02 10:10:11;;;;;;;12.60;2.10;;;;;;;22.78;39.59;101373.94;5053000;28;20196;-62
2022/11/02 10:12:51;;;;;;;7.50;2.07;;;;;;;24.02;36.66;101367.50;5048723;28;20261;-62
2022/11/02 10:15:22;;;;;;;12.90;2.67;;;;;;;25.13;35.12;101360.81;5053384;28;20210;-62
2022/11/02 10:17:55;;;;;;;11.27;2.20;;;;;;;25.88;32.86;101361.50;5052574;28;20204;-63
2022/11/02 10:20:26;;;;;;;11.50;2.25;;;;;;;25.37;34.29;101368.09;5055242;28;20223;-63
2022/11/02 10:22:58;;;;;;;9.82;2.00;;;;;;;24.50;35.27;101380.66;5056718;28;20728;-63
2022/11/02 10:25:27;;;;;;;7.70;1.77;;;;;;;23.93;36.24;101378.78;5046146;28;20647;-63
2022/11/02 10:28:03;;;;;;;8.93;2.42;;;;;;;22.85;38.08;101372.06;5054702;28;20211;-63
2022/11/02 10:30:32;;;;;;;8.85;2.05;;;;;;;21.74;40.41;101387.63;5053644;28;20215;-63
2022/11/02 10:33:00;;;;;;;11.05;1.88;;;;;;;21.02;41.31;101390.59;5051800;28;20219;-63
2022/11/02 10:35:36;;;;;;;11.88;2.22;;;;;;;20.94;42.01;101396.13;5051281;28;22467;-64
2022/11/02 10:38:37;;;;;;;14.77;2.15;;;;;;;21.47;40.73;101383.09;5054221;28;20235;-63
2022/11/02 10:41:18;;;;;;;9.63;2.17;;;;;;;22.37;39.81;101392.94;5052930;28;20905;-62
2022/11/02 10:43:59;;;;;;;7.43;1.92;;;;;;;22.57;39.22;101388.41;5055533;28;20213;-62
2022/11/02 10:46:40;;;;;;;9.45;2.22;;;;;;;22.10;39.40;101392.84;5056262;28;20405;-62
2022/11/02 10:49:19;;;;;;;6.60;2.22;;;;;;;22.66;38.89;101383.66;5053311;28;20256;-62
2022/11/02 10:51:46;;;;;;;10.82;2.20;;;;;;;23.40;37.38;101373.47;5045402;28;20258;-63
2022/11/02 10:54:16;;;;;;;5.78;1.52;;;;;;;23.73;36.84;101376.19;5052582;28;20294;-62
2022/11/02 10:56:56;;;;;;;7.28;1.60;;;;;;;23.49;36.18;101366.84;5047939;28;20295;-63
2022/11/02 10:59:24;;;;;;;7.50;1.92;;;;;;;24.04;35.24;101361.88;5049283;28;20203;-63
2022/11/02 11:02:05;;;;;;;8.77;2.13;;;;;;;25.24;33.93;101365.53;5063695;28;20756;-62
2022/11/02 11:04:34;;;;;;;8.90;1.85;;;;;;;25.75;33.69;101371.50;5047227;28;20245;-63
2022/11/02 11:07:06;;;;;;;10.25;2.25;;;;;;;26.03;32.40;101359.25;5055257;28;20212;-63
2022/11/02 11:09:39;;;;;;;8.15;1.77;;;;;;;26.19;32.19;101358.63;5050671;28;20260;-63
2022/11/02 11:12:19;;;;;;;8.02;2.00;;;;;;;26.04;32.23;101369.03;5050622;28;20747;-63
2022/11/02 11:14:51;;;;;;;7.18;1.80;;;;;;;25.89;31.98;101365.91;5049362;28;20289;-63
2022/11/02 11:17:41;;;;;;;6.28;1.50;;;;;;;25.71;32.16;101364.00;5051002;28;20204;-63
2022/11/02 11:20:36;;;;;;;7.22;1.73;;;;;;;25.92;31.99;101368.16;5054541;28;20242;-63
2022/11/02 11:23:18;;;;;;;6.10;1.60;;;;;;;26.87;30.85;101361.81;5064303;28;20208;-63
2022/11/02 11:26:00;;;;;;;9.07;1.92;;;;;;;27.90;29.74;101350.31;5058319;28;20250;-63
2022/11/02 11:28:33;;;;;;;7.30;2.15;;;;;;;28.12;28.94;101355.13;5059023;28;20200;-62
2022/11/02 11:31:09;;;;;;;8.48;2.28;;;;;;;27.63;29.30;101355.47;5054035;28;20238;-62
2022/11/02 11:33:46;;;;;;;7.10;2.20;;;;;;;27.11;29.62;101356.41;5058743;28;20206;-62
2022/11/02 11:36:24;;;;;;;12.25;2.33;;;;;;;27.74;30.09;101348.34;5051707;28;20208;-63
2022/11/02 11:38:55;;;;;;;7.25;2.50;;;;;;;28.02;29.25;101339.38;5059774;28;20215;-64
2022/11/02 11:41:24;;;;;;;11.70;2.40;;;;;;;27.78;29.04;101335.91;5057686;28;20747;-62
2022/11/02 11:43:54;;;;;;;7.07;1.80;;;;;;;27.30;30.00;101323.41;5064863;28;20212;-62
2022/11/02 11:46:22;;;;;;;6.75;2.13;;;;;;;26.83;30.76;101327.97;5055174;28;20656;-62
2022/11/02 11:48:52;;;;;;;7.80;2.15;;;;;;;26.08;31.59;101343.06;5054803;28;20278;-62
2022/11/02 11:51:34;;;;;;;8.25;2.15;;;;;;;25.44;32.39;101334.41;5054276;28;20541;-62